sensor_id;sensor_type;location;lat;lon;timestamp;P1;durP1;ratioP1;P2;durP2;ratioP2
33912;SDS011;20200;52.084;5.224;2023-04-24T00:01:45;4.0;;;2.5;;
33912;SDS011;20200;52.084;5.224;2023-04-24T00:03:21;4.0;;;2.5;;
33912;SDS011;20200;52.084;5.224;2023-04-24T00:04:58;3.4;;;2.7;;
33912;SDS011;20200;52.084;5.224;2023-04-24T00:06:34;3.7;;;2.9;;
33912;SDS011;20200;52.084;5.224;2023-04-24T00:09:47;3.4;;;3.1;;
33912;SDS011;20200;52.084;5.224;2023-04-24T00:11:25;5.4;;;4.91;;
33912;SDS011;20200;52.084;5.224;2023-04-24T00:13:02;5.3;;;4.8;;
33912;SDS011;20200;52.084;5.224;2023-04-24T00:16:14;6.7;;;6.0;;
33912;SDS011;20200;52.084;5.224;2023-04-24T00:17:50;6.3;;;5.7;;
33912;SDS011;20200;52.084;5.224;2023-04-24T00:19:26;6.0;;;5.5;;
33912;SDS011;20200;52.084;5.224;2023-04-24T00:21:04;7.1;;;6.4;;
33912;SDS011;20200;52.084;5.224;2023-04-24T00:24:16;7.7;;;7.0;;
33912;SDS011;20200;52.084;5.224;2023-04-24T00:25:54;6.9;;;5.6;;
33912;SDS011;20200;52.084;5.224;2023-04-24T00:27:30;7.8;;;6.3;;
33912;SDS011;20200;52.084;5.224;2023-04-24T00:30:44;9.31;;;6.2;;
33912;SDS011;20200;52.084;5.224;2023-04-24T00:32:21;7.0;;;6.4;;
33912;SDS011;20200;52.084;5.224;2023-04-24T00:33:57;6.0;;;5.5;;
33912;SDS011;20200;52.084;5.224;2023-04-24T00:37:10;5.9;;;5.2;;
33912;SDS011;20200;52.084;5.224;2023-04-24T00:38:46;8.2;;;6.6;;
33912;SDS011;20200;52.084;5.224;2023-04-24T00:40:22;7.4;;;6.6;;
33912;SDS011;20200;52.084;5.224;2023-04-24T00:41:58;7.8;;;7.1;;
33912;SDS011;20200;52.084;5.224;2023-04-24T00:45:12;11.5;;;8.71;;
33912;SDS011;20200;52.084;5.224;2023-04-24T00:46:49;11.5;;;10.3;;
33912;SDS011;20200;52.084;5.224;2023-04-24T00:48:26;12.0;;;10.7;;
33912;SDS011;20200;52.084;5.224;2023-04-24T00:51:42;13.4;;;10.21;;
33912;SDS011;20200;52.084;5.224;2023-04-24T00:53:18;11.6;;;10.1;;
33912;SDS011;20200;52.084;5.224;2023-04-24T00:54:55;10.9;;;9.81;;
33912;SDS011;20200;52.084;5.224;2023-04-24T00:58:10;11.5;;;10.3;;
33912;SDS011;20200;52.084;5.224;2023-04-24T00:59:47;13.1;;;11.7;;
33912;SDS011;20200;52.084;5.224;2023-04-24T01:01:23;14.7;;;12.1;;
33912;SDS011;20200;52.084;5.224;2023-04-24T01:03:00;12.3;;;11.0;;
33912;SDS011;20200;52.084;5.224;2023-04-24T01:06:18;14.2;;;12.8;;
33912;SDS011;20200;52.084;5.224;2023-04-24T01:07:56;15.4;;;12.4;;
33912;SDS011;20200;52.084;5.224;2023-04-24T01:09:33;15.1;;;12.3;;
33912;SDS011;20200;52.084;5.224;2023-04-24T01:12:47;13.5;;;12.1;;
33912;SDS011;20200;52.084;5.224;2023-04-24T01:14:23;15.2;;;13.4;;
33912;SDS011;20200;52.084;5.224;2023-04-24T01:16:00;15.6;;;13.1;;
33912;SDS011;20200;52.084;5.224;2023-04-24T01:17:39;17.11;;;15.3;;
33912;SDS011;20200;52.084;5.224;2023-04-24T01:20:58;15.5;;;13.8;;
33912;SDS011;20200;52.084;5.224;2023-04-24T01:22:39;18.2;;;15.1;;
33912;SDS011;20200;52.084;5.224;2023-04-24T01:24:16;22.0;;;16.5;;
33912;SDS011;20200;52.084;5.224;2023-04-24T01:27:31;19.61;;;16.0;;
33912;SDS011;20200;52.084;5.224;2023-04-24T01:29:08;19.3;;;17.2;;
33912;SDS011;20200;52.084;5.224;2023-04-24T01:30:45;19.7;;;17.61;;
33912;SDS011;20200;52.084;5.224;2023-04-24T01:32:22;22.8;;;17.91;;
33912;SDS011;20200;52.084;5.224;2023-04-24T01:35:35;20.3;;;17.3;;
33912;SDS011;20200;52.084;5.224;2023-04-24T01:37:12;20.2;;;17.8;;
33912;SDS011;20200;52.084;5.224;2023-04-24T01:38:50;19.3;;;16.5;;
33912;SDS011;20200;52.084;5.224;2023-04-24T01:42:04;19.11;;;15.7;;
33912;SDS011;20200;52.084;5.224;2023-04-24T01:43:41;22.2;;;19.0;;
33912;SDS011;20200;52.084;5.224;2023-04-24T01:45:18;14.0;;;12.6;;
33912;SDS011;20200;52.084;5.224;2023-04-24T01:46:54;16.5;;;13.4;;
33912;SDS011;20200;52.084;5.224;2023-04-24T01:50:10;15.7;;;14.0;;
33912;SDS011;20200;52.084;5.224;2023-04-24T01:51:47;12.9;;;11.6;;
33912;SDS011;20200;52.084;5.224;2023-04-24T01:53:24;10.9;;;9.9;;
33912;SDS011;20200;52.084;5.224;2023-04-24T01:56:40;14.2;;;12.0;;
33912;SDS011;20200;52.084;5.224;2023-04-24T01:58:18;12.7;;;10.4;;
33912;SDS011;20200;52.084;5.224;2023-04-24T01:59:56;14.9;;;12.5;;
33912;SDS011;20200;52.084;5.224;2023-04-24T02:01:33;12.9;;;11.0;;
33912;SDS011;20200;52.084;5.224;2023-04-24T02:04:47;12.5;;;10.7;;
33912;SDS011;20200;52.084;5.224;2023-04-24T02:06:23;13.2;;;11.2;;
33912;SDS011;20200;52.084;5.224;2023-04-24T02:07:59;14.3;;;12.1;;
33912;SDS011;20200;52.084;5.224;2023-04-24T02:11:13;10.0;;;8.4;;
33912;SDS011;20200;52.084;5.224;2023-04-24T02:12:49;12.2;;;10.8;;
33912;SDS011;20200;52.084;5.224;2023-04-24T02:14:26;10.0;;;8.9;;
33912;SDS011;20200;52.084;5.224;2023-04-24T02:17:38;12.5;;;11.2;;
33912;SDS011;20200;52.084;5.224;2023-04-24T02:19:15;14.2;;;10.8;;
33912;SDS011;20200;52.084;5.224;2023-04-24T02:20:51;15.4;;;12.3;;
33912;SDS011;20200;52.084;5.224;2023-04-24T02:22:29;13.7;;;12.3;;
33912;SDS011;20200;52.084;5.224;2023-04-24T02:25:42;14.1;;;11.7;;
33912;SDS011;20200;52.084;5.224;2023-04-24T02:27:18;13.5;;;11.4;;
33912;SDS011;20200;52.084;5.224;2023-04-24T02:28:55;14.3;;;12.7;;
33912;SDS011;20200;52.084;5.224;2023-04-24T02:32:09;10.0;;;9.0;;
33912;SDS011;20200;52.084;5.224;2023-04-24T02:33:45;13.4;;;11.3;;
33912;SDS011;20200;52.084;5.224;2023-04-24T02:35:21;11.2;;;10.0;;
33912;SDS011;20200;52.084;5.224;2023-04-24T02:38:35;12.7;;;10.4;;
33912;SDS011;20200;52.084;5.224;2023-04-24T02:40:11;12.2;;;10.9;;
33912;SDS011;20200;52.084;5.224;2023-04-24T02:41:48;11.6;;;10.4;;
33912;SDS011;20200;52.084;5.224;2023-04-24T02:43:24;13.7;;;11.6;;
33912;SDS011;20200;52.084;5.224;2023-04-24T02:46:39;11.6;;;10.1;;
33912;SDS011;20200;52.084;5.224;2023-04-24T02:48:16;12.9;;;10.9;;
33912;SDS011;20200;52.084;5.224;2023-04-24T02:49:52;12.0;;;10.21;;
33912;SDS011;20200;52.084;5.224;2023-04-24T02:53:05;12.4;;;11.1;;
33912;SDS011;20200;52.084;5.224;2023-04-24T02:54:43;15.8;;;11.9;;
33912;SDS011;20200;52.084;5.224;2023-04-24T02:56:19;11.3;;;10.1;;
33912;SDS011;20200;52.084;5.224;2023-04-24T02:59:32;12.2;;;10.9;;
33912;SDS011;20200;52.084;5.224;2023-04-24T03:01:08;14.4;;;12.9;;
33912;SDS011;20200;52.084;5.224;2023-04-24T03:02:45;15.4;;;13.8;;
33912;SDS011;20200;52.084;5.224;2023-04-24T03:04:22;15.4;;;13.6;;
33912;SDS011;20200;52.084;5.224;2023-04-24T03:07:35;13.0;;;11.7;;
33912;SDS011;20200;52.084;5.224;2023-04-24T03:09:12;16.4;;;14.2;;
33912;SDS011;20200;52.084;5.224;2023-04-24T03:10:49;14.5;;;13.0;;
33912;SDS011;20200;52.084;5.224;2023-04-24T03:14:02;19.41;;;16.0;;
33912;SDS011;20200;52.084;5.224;2023-04-24T03:15:39;17.8;;;15.9;;
33912;SDS011;20200;52.084;5.224;2023-04-24T03:17:16;20.2;;;17.11;;
33912;SDS011;20200;52.084;5.224;2023-04-24T03:18:53;18.0;;;15.6;;
33912;SDS011;20200;52.084;5.224;2023-04-24T03:22:07;14.3;;;12.8;;
33912;SDS011;20200;52.084;5.224;2023-04-24T03:23:44;13.7;;;12.3;;
33912;SDS011;20200;52.084;5.224;2023-04-24T03:25:20;21.0;;;18.5;;
33912;SDS011;20200;52.084;5.224;2023-04-24T03:28:34;23.8;;;20.3;;
33912;SDS011;20200;52.084;5.224;2023-04-24T03:30:12;26.4;;;22.6;;
33912;SDS011;20200;52.084;5.224;2023-04-24T03:31:49;27.4;;;22.8;;
33912;SDS011;20200;52.084;5.224;2023-04-24T03:35:02;23.0;;;19.0;;
33912;SDS011;20200;52.084;5.224;2023-04-24T03:36:39;24.1;;;21.4;;
33912;SDS011;20200;52.084;5.224;2023-04-24T03:38:15;18.7;;;16.4;;
33912;SDS011;20200;52.084;5.224;2023-04-24T03:39:51;22.0;;;18.61;;
33912;SDS011;20200;52.084;5.224;2023-04-24T03:43:05;19.0;;;16.2;;
33912;SDS011;20200;52.084;5.224;2023-04-24T03:44:41;18.7;;;16.2;;
33912;SDS011;20200;52.084;5.224;2023-04-24T03:46:18;14.8;;;13.3;;
33912;SDS011;20200;52.084;5.224;2023-04-24T03:49:32;12.1;;;10.9;;
33912;SDS011;20200;52.084;5.224;2023-04-24T03:51:08;17.41;;;14.1;;
33912;SDS011;20200;52.084;5.224;2023-04-24T03:52:45;14.4;;;11.7;;
33912;SDS011;20200;52.084;5.224;2023-04-24T03:55:59;10.6;;;9.1;;
33912;SDS011;20200;52.084;5.224;2023-04-24T03:57:35;14.5;;;12.0;;
33912;SDS011;20200;52.084;5.224;2023-04-24T03:59:12;13.9;;;12.4;;
33912;SDS011;20200;52.084;5.224;2023-04-24T04:00:48;12.4;;;11.1;;
33912;SDS011;20200;52.084;5.224;2023-04-24T04:04:01;12.8;;;11.5;;
33912;SDS011;20200;52.084;5.224;2023-04-24T04:05:37;11.0;;;9.9;;
33912;SDS011;20200;52.084;5.224;2023-04-24T04:07:15;14.3;;;12.8;;
33912;SDS011;20200;52.084;5.224;2023-04-24T04:10:29;14.4;;;12.9;;
33912;SDS011;20200;52.084;5.224;2023-04-24T04:12:06;14.7;;;12.9;;
33912;SDS011;20200;52.084;5.224;2023-04-24T04:13:43;14.6;;;12.2;;
33912;SDS011;20200;52.084;5.224;2023-04-24T04:16:57;14.6;;;12.2;;
33912;SDS011;20200;52.084;5.224;2023-04-24T04:18:34;11.3;;;10.21;;
33912;SDS011;20200;52.084;5.224;2023-04-24T04:20:11;12.8;;;11.5;;
33912;SDS011;20200;52.084;5.224;2023-04-24T04:21:47;16.11;;;13.5;;
33912;SDS011;20200;52.084;5.224;2023-04-24T04:24:59;17.11;;;14.3;;
33912;SDS011;20200;52.084;5.224;2023-04-24T04:26:36;17.3;;;14.0;;
33912;SDS011;20200;52.084;5.224;2023-04-24T04:28:14;16.5;;;14.6;;
33912;SDS011;20200;52.084;5.224;2023-04-24T04:31:27;18.41;;;15.2;;
33912;SDS011;20200;52.084;5.224;2023-04-24T04:33:03;19.61;;;15.5;;
33912;SDS011;20200;52.084;5.224;2023-04-24T04:34:39;13.3;;;11.3;;
33912;SDS011;20200;52.084;5.224;2023-04-24T04:37:51;17.91;;;14.7;;
33912;SDS011;20200;52.084;5.224;2023-04-24T04:39:27;14.6;;;13.1;;
33912;SDS011;20200;52.084;5.224;2023-04-24T04:41:03;17.2;;;14.7;;
33912;SDS011;20200;52.084;5.224;2023-04-24T04:42:40;17.11;;;14.0;;
33912;SDS011;20200;52.084;5.224;2023-04-24T04:45:52;17.8;;;14.4;;
33912;SDS011;20200;52.084;5.224;2023-04-24T04:47:28;20.0;;;15.4;;
33912;SDS011;20200;52.084;5.224;2023-04-24T04:49:04;20.11;;;16.9;;
33912;SDS011;20200;52.084;5.224;2023-04-24T04:52:16;18.7;;;15.8;;
33912;SDS011;20200;52.084;5.224;2023-04-24T04:53:52;20.2;;;16.2;;
33912;SDS011;20200;52.084;5.224;2023-04-24T04:55:29;20.41;;;16.4;;
33912;SDS011;20200;52.084;5.224;2023-04-24T04:58:42;24.0;;;17.91;;
33912;SDS011;20200;52.084;5.224;2023-04-24T05:00:18;20.3;;;15.7;;
33912;SDS011;20200;52.084;5.224;2023-04-24T05:01:55;21.9;;;17.0;;
33912;SDS011;20200;52.084;5.224;2023-04-24T05:03:31;20.3;;;15.5;;
33912;SDS011;20200;52.084;5.224;2023-04-24T05:06:44;14.5;;;12.4;;
33912;SDS011;20200;52.084;5.224;2023-04-24T05:08:20;14.5;;;12.8;;
33912;SDS011;20200;52.084;5.224;2023-04-24T05:09:57;14.0;;;12.6;;
33912;SDS011;20200;52.084;5.224;2023-04-24T05:13:09;15.7;;;13.6;;
33912;SDS011;20200;52.084;5.224;2023-04-24T05:14:45;12.6;;;11.2;;
33912;SDS011;20200;52.084;5.224;2023-04-24T05:16:21;12.0;;;10.7;;
33912;SDS011;20200;52.084;5.224;2023-04-24T05:19:34;12.2;;;10.9;;
33912;SDS011;20200;52.084;5.224;2023-04-24T05:21:10;11.2;;;10.0;;
33912;SDS011;20200;52.084;5.224;2023-04-24T05:22:46;10.5;;;8.9;;
33912;SDS011;20200;52.084;5.224;2023-04-24T05:25:59;10.6;;;9.21;;
33912;SDS011;20200;52.084;5.224;2023-04-24T05:27:35;12.1;;;9.9;;
33912;SDS011;20200;52.084;5.224;2023-04-24T05:29:12;9.31;;;8.4;;
33912;SDS011;20200;52.084;5.224;2023-04-24T05:30:48;10.1;;;8.71;;
33912;SDS011;20200;52.084;5.224;2023-04-24T05:34:00;9.5;;;8.4;;
33912;SDS011;20200;52.084;5.224;2023-04-24T05:35:36;12.9;;;8.81;;
33912;SDS011;20200;52.084;5.224;2023-04-24T05:37:13;9.0;;;6.6;;
33912;SDS011;20200;52.084;5.224;2023-04-24T05:40:25;5.8;;;4.2;;
33912;SDS011;20200;52.084;5.224;2023-04-24T05:42:01;3.2;;;2.0;;
33912;SDS011;20200;52.084;5.224;2023-04-24T05:43:38;5.3;;;2.0;;
33912;SDS011;20200;52.084;5.224;2023-04-24T05:46:50;2.31;;;1.8;;
33912;SDS011;20200;52.084;5.224;2023-04-24T05:48:26;2.31;;;1.5;;
33912;SDS011;20200;52.084;5.224;2023-04-24T05:50:03;3.5;;;1.2;;
33912;SDS011;20200;52.084;5.224;2023-04-24T05:51:41;4.61;;;1.4;;
33912;SDS011;20200;52.084;5.224;2023-04-24T05:54:53;3.0;;;1.2;;
33912;SDS011;20200;52.084;5.224;2023-04-24T05:56:29;2.7;;;1.4;;
33912;SDS011;20200;52.084;5.224;2023-04-24T05:58:06;3.0;;;1.3;;
33912;SDS011;20200;52.084;5.224;2023-04-24T06:01:18;2.31;;;1.2;;
33912;SDS011;20200;52.084;5.224;2023-04-24T06:02:55;3.2;;;1.3;;
33912;SDS011;20200;52.084;5.224;2023-04-24T06:04:31;2.31;;;1.3;;
33912;SDS011;20200;52.084;5.224;2023-04-24T06:07:44;3.9;;;1.2;;
33912;SDS011;20200;52.084;5.224;2023-04-24T06:09:20;4.1;;;1.7;;
33912;SDS011;20200;52.084;5.224;2023-04-24T06:10:56;12.0;;;2.8;;
33912;SDS011;20200;52.084;5.224;2023-04-24T06:12:32;6.7;;;2.8;;
33912;SDS011;20200;52.084;5.224;2023-04-24T06:15:45;5.5;;;2.7;;
33912;SDS011;20200;52.084;5.224;2023-04-24T06:17:21;4.0;;;2.1;;
33912;SDS011;20200;52.084;5.224;2023-04-24T06:18:57;4.0;;;2.1;;
33912;SDS011;20200;52.084;5.224;2023-04-24T06:22:09;4.1;;;2.0;;
33912;SDS011;20200;52.084;5.224;2023-04-24T06:23:45;7.8;;;2.31;;
33912;SDS011;20200;52.084;5.224;2023-04-24T06:25:22;5.4;;;3.6;;
33912;SDS011;20200;52.084;5.224;2023-04-24T06:28:37;4.3;;;3.1;;
33912;SDS011;20200;52.084;5.224;2023-04-24T06:30:13;6.0;;;4.41;;
33912;SDS011;20200;52.084;5.224;2023-04-24T06:31:50;10.3;;;7.2;;
33912;SDS011;20200;52.084;5.224;2023-04-24T06:33:26;11.3;;;8.9;;
33912;SDS011;20200;52.084;5.224;2023-04-24T06:36:39;15.4;;;10.8;;
33912;SDS011;20200;52.084;5.224;2023-04-24T06:38:15;21.2;;;14.5;;
33912;SDS011;20200;52.084;5.224;2023-04-24T06:39:52;20.11;;;14.9;;
33912;SDS011;20200;52.084;5.224;2023-04-24T06:43:04;22.3;;;16.4;;
33912;SDS011;20200;52.084;5.224;2023-04-24T06:44:40;27.0;;;17.91;;
33912;SDS011;20200;52.084;5.224;2023-04-24T06:46:16;29.2;;;18.41;;
33912;SDS011;20200;52.084;5.224;2023-04-24T06:49:28;27.7;;;19.11;;
33912;SDS011;20200;52.084;5.224;2023-04-24T06:51:04;30.4;;;19.41;;
33912;SDS011;20200;52.084;5.224;2023-04-24T06:52:41;31.7;;;22.3;;
33912;SDS011;20200;52.084;5.224;2023-04-24T06:55:53;31.8;;;22.6;;
33912;SDS011;20200;52.084;5.224;2023-04-24T06:57:29;36.31;;;24.5;;
33912;SDS011;20200;52.084;5.224;2023-04-24T06:59:06;31.1;;;22.5;;
33912;SDS011;20200;52.084;5.224;2023-04-24T07:00:42;33.3;;;22.1;;
33912;SDS011;20200;52.084;5.224;2023-04-24T07:03:54;33.3;;;22.2;;
33912;SDS011;20200;52.084;5.224;2023-04-24T07:05:31;33.6;;;21.7;;
33912;SDS011;20200;52.084;5.224;2023-04-24T07:07:07;36.0;;;22.5;;
33912;SDS011;20200;52.084;5.224;2023-04-24T07:10:19;29.7;;;20.5;;
33912;SDS011;20200;52.084;5.224;2023-04-24T07:11:55;28.8;;;20.8;;
33912;SDS011;20200;52.084;5.224;2023-04-24T07:13:31;30.6;;;20.2;;
33912;SDS011;20200;52.084;5.224;2023-04-24T07:16:45;35.71;;;21.2;;
33912;SDS011;20200;52.084;5.224;2023-04-24T07:18:22;33.6;;;21.2;;
33912;SDS011;20200;52.084;5.224;2023-04-24T07:19:58;33.9;;;21.9;;
33912;SDS011;20200;52.084;5.224;2023-04-24T07:21:34;33.8;;;21.1;;
33912;SDS011;20200;52.084;5.224;2023-04-24T07:24:46;37.1;;;20.9;;
33912;SDS011;20200;52.084;5.224;2023-04-24T07:26:22;32.5;;;20.3;;
33912;SDS011;20200;52.084;5.224;2023-04-24T07:27:59;34.4;;;21.4;;
33912;SDS011;20200;52.084;5.224;2023-04-24T07:31:12;38.0;;;22.4;;
33912;SDS011;20200;52.084;5.224;2023-04-24T07:32:49;35.31;;;21.7;;
33912;SDS011;20200;52.084;5.224;2023-04-24T07:34:25;37.6;;;21.8;;
33912;SDS011;20200;52.084;5.224;2023-04-24T07:37:37;35.0;;;19.91;;
33912;SDS011;20200;52.084;5.224;2023-04-24T07:39:14;34.6;;;19.3;;
33912;SDS011;20200;52.084;5.224;2023-04-24T07:40:50;34.31;;;19.0;;
33912;SDS011;20200;52.084;5.224;2023-04-24T07:44:04;33.0;;;17.11;;
33912;SDS011;20200;52.084;5.224;2023-04-24T07:45:40;33.5;;;16.4;;
33912;SDS011;20200;52.084;5.224;2023-04-24T07:47:16;38.6;;;16.5;;
33912;SDS011;20200;52.084;5.224;2023-04-24T07:48:52;41.0;;;16.3;;
33912;SDS011;20200;52.084;5.224;2023-04-24T07:52:05;39.4;;;15.5;;
33912;SDS011;20200;52.084;5.224;2023-04-24T07:53:42;39.4;;;15.0;;
33912;SDS011;20200;52.084;5.224;2023-04-24T07:55:19;43.6;;;15.2;;
33912;SDS011;20200;52.084;5.224;2023-04-24T07:58:32;45.7;;;15.8;;
33912;SDS011;20200;52.084;5.224;2023-04-24T08:00:08;39.1;;;14.6;;
33912;SDS011;20200;52.084;5.224;2023-04-24T08:01:45;39.31;;;13.1;;
33912;SDS011;20200;52.084;5.224;2023-04-24T08:04:57;42.3;;;13.8;;
33912;SDS011;20200;52.084;5.224;2023-04-24T08:06:34;36.6;;;12.9;;
33912;SDS011;20200;52.084;5.224;2023-04-24T08:08:10;39.4;;;12.1;;
33912;SDS011;20200;52.084;5.224;2023-04-24T08:09:46;37.0;;;11.3;;
33912;SDS011;20200;52.084;5.224;2023-04-24T08:12:59;41.0;;;10.9;;
33912;SDS011;20200;52.084;5.224;2023-04-24T08:14:35;40.21;;;10.3;;
33912;SDS011;20200;52.084;5.224;2023-04-24T08:16:11;36.9;;;10.21;;
33912;SDS011;20200;52.084;5.224;2023-04-24T08:19:24;40.4;;;11.2;;
33912;SDS011;20200;52.084;5.224;2023-04-24T08:21:00;36.4;;;9.31;;
33912;SDS011;20200;52.084;5.224;2023-04-24T08:22:36;35.81;;;9.71;;
33912;SDS011;20200;52.084;5.224;2023-04-24T08:25:48;35.71;;;9.1;;
33912;SDS011;20200;52.084;5.224;2023-04-24T08:27:25;31.9;;;8.1;;
33912;SDS011;20200;52.084;5.224;2023-04-24T08:29:01;31.4;;;8.2;;
33912;SDS011;20200;52.084;5.224;2023-04-24T08:30:37;30.1;;;7.6;;
33912;SDS011;20200;52.084;5.224;2023-04-24T08:33:51;30.2;;;7.1;;
33912;SDS011;20200;52.084;5.224;2023-04-24T08:35:27;31.8;;;7.1;;
33912;SDS011;20200;52.084;5.224;2023-04-24T08:37:03;28.9;;;6.7;;
33912;SDS011;20200;52.084;5.224;2023-04-24T08:40:16;26.9;;;6.2;;
33912;SDS011;20200;52.084;5.224;2023-04-24T08:41:52;31.7;;;6.7;;
33912;SDS011;20200;52.084;5.224;2023-04-24T08:43:29;31.2;;;7.2;;
33912;SDS011;20200;52.084;5.224;2023-04-24T08:46:47;22.6;;;6.0;;
33912;SDS011;20200;52.084;5.224;2023-04-24T08:48:24;19.11;;;5.6;;
33912;SDS011;20200;52.084;5.224;2023-04-24T08:50:02;20.6;;;5.6;;
33912;SDS011;20200;52.084;5.224;2023-04-24T08:51:38;20.6;;;4.8;;
33912;SDS011;20200;52.084;5.224;2023-04-24T08:54:53;19.3;;;4.7;;
33912;SDS011;20200;52.084;5.224;2023-04-24T08:56:30;25.0;;;5.8;;
33912;SDS011;20200;52.084;5.224;2023-04-24T08:58:10;24.9;;;5.7;;
33912;SDS011;20200;52.084;5.224;2023-04-24T09:01:22;26.2;;;6.0;;
33912;SDS011;20200;52.084;5.224;2023-04-24T09:03:01;22.6;;;5.4;;
33912;SDS011;20200;52.084;5.224;2023-04-24T09:04:40;18.5;;;5.3;;
33912;SDS011;20200;52.084;5.224;2023-04-24T09:06:18;21.6;;;5.8;;
33912;SDS011;20200;52.084;5.224;2023-04-24T09:09:38;24.3;;;6.2;;
33912;SDS011;20200;52.084;5.224;2023-04-24T09:11:14;26.9;;;6.3;;
33912;SDS011;20200;52.084;5.224;2023-04-24T09:12:52;30.5;;;6.0;;
33912;SDS011;20200;52.084;5.224;2023-04-24T09:16:06;23.9;;;6.0;;
33912;SDS011;20200;52.084;5.224;2023-04-24T09:17:43;27.9;;;5.8;;
33912;SDS011;20200;52.084;5.224;2023-04-24T09:19:19;24.9;;;5.6;;
33912;SDS011;20200;52.084;5.224;2023-04-24T09:20:57;24.7;;;5.7;;
33912;SDS011;20200;52.084;5.224;2023-04-24T09:24:14;22.6;;;4.91;;
33912;SDS011;20200;52.084;5.224;2023-04-24T09:25:53;20.6;;;5.5;;
33912;SDS011;20200;52.084;5.224;2023-04-24T09:27:31;24.8;;;6.0;;
33912;SDS011;20200;52.084;5.224;2023-04-24T09:30:54;24.3;;;5.6;;
33912;SDS011;20200;52.084;5.224;2023-04-24T09:32:38;20.0;;;5.11;;
33912;SDS011;20200;52.084;5.224;2023-04-24T09:34:18;20.5;;;5.7;;
33912;SDS011;20200;52.084;5.224;2023-04-24T09:35:57;24.3;;;5.7;;
33912;SDS011;20200;52.084;5.224;2023-04-24T09:37:35;23.2;;;5.9;;
33912;SDS011;20200;52.084;5.224;2023-04-24T09:40:51;19.91;;;5.2;;
33912;SDS011;20200;52.084;5.224;2023-04-24T09:42:28;20.41;;;4.91;;
33912;SDS011;20200;52.084;5.224;2023-04-24T09:44:10;28.9;;;5.7;;
33912;SDS011;20200;52.084;5.224;2023-04-24T09:47:24;20.8;;;5.0;;
33912;SDS011;20200;52.084;5.224;2023-04-24T09:49:07;15.8;;;4.2;;
33912;SDS011;20200;52.084;5.224;2023-04-24T09:50:45;15.2;;;3.8;;
33912;SDS011;20200;52.084;5.224;2023-04-24T09:52:22;16.8;;;4.61;;
33912;SDS011;20200;52.084;5.224;2023-04-24T09:55:36;17.0;;;4.1;;
33912;SDS011;20200;52.084;5.224;2023-04-24T09:57:15;11.5;;;3.6;;
33912;SDS011;20200;52.084;5.224;2023-04-24T09:58:51;13.4;;;3.7;;
33912;SDS011;20200;52.084;5.224;2023-04-24T10:02:15;13.7;;;3.4;;
33912;SDS011;20200;52.084;5.224;2023-04-24T10:03:53;15.1;;;3.6;;
33912;SDS011;20200;52.084;5.224;2023-04-24T10:05:29;11.1;;;3.3;;
33912;SDS011;20200;52.084;5.224;2023-04-24T10:07:07;15.0;;;3.4;;
33912;SDS011;20200;52.084;5.224;2023-04-24T10:10:20;14.8;;;4.1;;
33912;SDS011;20200;52.084;5.224;2023-04-24T10:11:57;18.0;;;4.0;;
33912;SDS011;20200;52.084;5.224;2023-04-24T10:13:35;12.8;;;3.1;;
33912;SDS011;20200;52.084;5.224;2023-04-24T10:16:49;16.5;;;3.4;;
33912;SDS011;20200;52.084;5.224;2023-04-24T10:18:28;16.5;;;4.0;;
33912;SDS011;20200;52.084;5.224;2023-04-24T10:20:05;12.5;;;3.3;;
33912;SDS011;20200;52.084;5.224;2023-04-24T10:21:43;12.9;;;3.5;;
33912;SDS011;20200;52.084;5.224;2023-04-24T10:24:57;8.9;;;2.8;;
33912;SDS011;20200;52.084;5.224;2023-04-24T10:26:35;9.31;;;2.1;;
33912;SDS011;20200;52.084;5.224;2023-04-24T10:28:11;9.81;;;2.0;;
33912;SDS011;20200;52.084;5.224;2023-04-24T10:31:31;6.3;;;1.8;;
33912;SDS011;20200;52.084;5.224;2023-04-24T10:33:07;8.2;;;1.8;;
33912;SDS011;20200;52.084;5.224;2023-04-24T10:34:44;7.5;;;1.8;;
33912;SDS011;20200;52.084;5.224;2023-04-24T10:36:21;9.6;;;1.8;;
33912;SDS011;20200;52.084;5.224;2023-04-24T10:39:41;6.1;;;1.7;;
33912;SDS011;20200;52.084;5.224;2023-04-24T10:41:17;9.6;;;1.9;;
33912;SDS011;20200;52.084;5.224;2023-04-24T10:42:54;10.6;;;2.0;;
33912;SDS011;20200;52.084;5.224;2023-04-24T10:44:35;8.5;;;2.5;;
33912;SDS011;20200;52.084;5.224;2023-04-24T10:47:57;9.31;;;2.21;;
33912;SDS011;20200;52.084;5.224;2023-04-24T10:49:34;9.21;;;2.31;;
33912;SDS011;20200;52.084;5.224;2023-04-24T10:51:12;10.6;;;2.4;;
33912;SDS011;20200;52.084;5.224;2023-04-24T10:54:25;7.3;;;1.9;;
33912;SDS011;20200;52.084;5.224;2023-04-24T10:56:04;6.9;;;1.8;;
33912;SDS011;20200;52.084;5.224;2023-04-24T10:58:00;7.5;;;1.6;;
33912;SDS011;20200;52.084;5.224;2023-04-24T10:59:38;6.0;;;1.6;;
33912;SDS011;20200;52.084;5.224;2023-04-24T11:01:30;8.4;;;1.8;;
33912;SDS011;20200;52.084;5.224;2023-04-24T11:05:02;11.6;;;4.7;;
33912;SDS011;20200;52.084;5.224;2023-04-24T11:06:39;7.0;;;2.0;;
33912;SDS011;20200;52.084;5.224;2023-04-24T11:08:22;9.6;;;2.5;;
33912;SDS011;20200;52.084;5.224;2023-04-24T11:10:00;8.31;;;2.31;;
33912;SDS011;20200;52.084;5.224;2023-04-24T11:13:15;9.5;;;2.31;;
33912;SDS011;20200;52.084;5.224;2023-04-24T11:15:00;10.0;;;2.1;;
33912;SDS011;20200;52.084;5.224;2023-04-24T11:16:39;12.2;;;2.5;;
33912;SDS011;20200;52.084;5.224;2023-04-24T11:18:36;10.8;;;2.6;;
33912;SDS011;20200;52.084;5.224;2023-04-24T11:20:16;10.4;;;2.6;;
33912;SDS011;20200;52.084;5.224;2023-04-24T11:23:35;12.3;;;3.1;;
33912;SDS011;20200;52.084;5.224;2023-04-24T11:25:11;13.7;;;2.9;;
33912;SDS011;20200;52.084;5.224;2023-04-24T11:26:47;11.3;;;2.6;;
33912;SDS011;20200;52.084;5.224;2023-04-24T11:30:00;13.0;;;2.9;;
33912;SDS011;20200;52.084;5.224;2023-04-24T11:31:38;17.41;;;3.3;;
33912;SDS011;20200;52.084;5.224;2023-04-24T11:33:16;14.9;;;3.6;;
33912;SDS011;20200;52.084;5.224;2023-04-24T11:34:57;11.2;;;2.6;;
33912;SDS011;20200;52.084;5.224;2023-04-24T11:38:11;13.1;;;2.5;;
33912;SDS011;20200;52.084;5.224;2023-04-24T11:39:50;7.5;;;1.8;;
33912;SDS011;20200;52.084;5.224;2023-04-24T11:41:29;7.9;;;1.8;;
33912;SDS011;20200;52.084;5.224;2023-04-24T11:43:05;7.7;;;1.5;;
33912;SDS011;20200;52.084;5.224;2023-04-24T11:46:20;5.7;;;1.3;;
33912;SDS011;20200;52.084;5.224;2023-04-24T11:47:56;9.81;;;1.9;;
33912;SDS011;20200;52.084;5.224;2023-04-24T11:49:33;6.0;;;1.5;;
33912;SDS011;20200;52.084;5.224;2023-04-24T11:52:49;7.7;;;1.8;;
33912;SDS011;20200;52.084;5.224;2023-04-24T11:54:25;8.0;;;2.4;;
33912;SDS011;20200;52.084;5.224;2023-04-24T11:56:02;8.9;;;2.21;;
33912;SDS011;20200;52.084;5.224;2023-04-24T11:59:17;8.1;;;1.5;;
33912;SDS011;20200;52.084;5.224;2023-04-24T12:00:55;6.6;;;1.6;;
33912;SDS011;20200;52.084;5.224;2023-04-24T12:02:32;9.6;;;2.1;;
33912;SDS011;20200;52.084;5.224;2023-04-24T12:04:08;11.0;;;2.31;;
33912;SDS011;20200;52.084;5.224;2023-04-24T12:07:21;12.3;;;2.0;;
33912;SDS011;20200;52.084;5.224;2023-04-24T12:08:59;9.31;;;2.21;;
33912;SDS011;20200;52.084;5.224;2023-04-24T12:10:35;9.5;;;2.0;;
33912;SDS011;20200;52.084;5.224;2023-04-24T12:13:48;11.1;;;2.6;;
33912;SDS011;20200;52.084;5.224;2023-04-24T12:15:24;11.1;;;2.6;;
33912;SDS011;20200;52.084;5.224;2023-04-24T12:17:01;15.9;;;5.7;;
33912;SDS011;20200;52.084;5.224;2023-04-24T12:18:42;14.4;;;5.0;;
33912;SDS011;20200;52.084;5.224;2023-04-24T12:22:01;11.3;;;2.5;;
33912;SDS011;20200;52.084;5.224;2023-04-24T12:23:42;15.5;;;2.8;;
33912;SDS011;20200;52.084;5.224;2023-04-24T12:25:18;11.1;;;2.5;;
33912;SDS011;20200;52.084;5.224;2023-04-24T12:28:36;8.31;;;2.5;;
33912;SDS011;20200;52.084;5.224;2023-04-24T12:30:14;10.6;;;2.31;;
33912;SDS011;20200;52.084;5.224;2023-04-24T12:31:51;12.1;;;3.0;;
33912;SDS011;20200;52.084;5.224;2023-04-24T12:33:27;11.5;;;2.5;;
33912;SDS011;20200;52.084;5.224;2023-04-24T12:36:45;10.0;;;2.31;;
33912;SDS011;20200;52.084;5.224;2023-04-24T12:38:23;12.8;;;2.9;;
33912;SDS011;20200;52.084;5.224;2023-04-24T12:40:02;14.1;;;3.6;;
33912;SDS011;20200;52.084;5.224;2023-04-24T12:41:49;13.3;;;3.8;;